sensor_id;sensor_type;location;lat;lon;timestamp;P1;durP1;ratioP1;P2;durP2;ratioP2
7517;SDS011;3800;48.922;9.444;2023-07-02T00:00:28;5.47;;;3.80;;
7517;SDS011;3800;48.922;9.444;2023-07-02T00:02:59;4.37;;;3.77;;
7517;SDS011;3800;48.922;9.444;2023-07-02T00:05:25;5.93;;;3.70;;
7517;SDS011;3800;48.922;9.444;2023-07-02T00:07:54;6.17;;;4.00;;
7517;SDS011;3800;48.922;9.444;2023-07-02T00:10:23;4.30;;;3.90;;
7517;SDS011;3800;48.922;9.444;2023-07-02T00:12:51;4.50;;;4.10;;
7517;SDS011;3800;48.922;9.444;2023-07-02T00:15:19;4.67;;;3.80;;
7517;SDS011;3800;48.922;9.444;2023-07-02T00:17:48;6.63;;;3.70;;
7517;SDS011;3800;48.922;9.444;2023-07-02T00:20:17;4.90;;;3.80;;
7517;SDS011;3800;48.922;9.444;2023-07-02T00:22:46;5.20;;;3.87;;
7517;SDS011;3800;48.922;9.444;2023-07-02T00:25:14;3.97;;;3.67;;
7517;SDS011;3800;48.922;9.444;2023-07-02T00:27:42;4.20;;;3.80;;
7517;SDS011;3800;48.922;9.444;2023-07-02T00:30:10;4.40;;;3.60;;
7517;SDS011;3800;48.922;9.444;2023-07-02T00:32:39;4.53;;;4.13;;
7517;SDS011;3800;48.922;9.444;2023-07-02T00:35:07;4.50;;;4.10;;
7517;SDS011;3800;48.922;9.444;2023-07-02T00:37:35;4.47;;;3.87;;
7517;SDS011;3800;48.922;9.444;2023-07-02T00:40:04;4.80;;;3.70;;
7517;SDS011;3800;48.922;9.444;2023-07-02T00:42:33;3.80;;;3.40;;
7517;SDS011;3800;48.922;9.444;2023-07-02T00:45:02;4.70;;;3.70;;
7517;SDS011;3800;48.922;9.444;2023-07-02T00:47:32;5.27;;;3.60;;
7517;SDS011;3800;48.922;9.444;2023-07-02T00:50:00;4.70;;;4.00;;
7517;SDS011;3800;48.922;9.444;2023-07-02T00:52:28;3.67;;;3.37;;
7517;SDS011;3800;48.922;9.444;2023-07-02T00:54:57;4.53;;;4.07;;
7517;SDS011;3800;48.922;9.444;2023-07-02T00:57:26;4.27;;;3.70;;
7517;SDS011;3800;48.922;9.444;2023-07-02T00:59:54;3.87;;;3.57;;
7517;SDS011;3800;48.922;9.444;2023-07-02T01:02:23;4.97;;;4.10;;
7517;SDS011;3800;48.922;9.444;2023-07-02T01:04:51;4.37;;;3.97;;
7517;SDS011;3800;48.922;9.444;2023-07-02T01:07:20;4.20;;;3.80;;
7517;SDS011;3800;48.922;9.444;2023-07-02T01:09:48;4.20;;;3.80;;
7517;SDS011;3800;48.922;9.444;2023-07-02T01:12:17;5.70;;;4.27;;
7517;SDS011;3800;48.922;9.444;2023-07-02T01:14:48;6.90;;;4.20;;
7517;SDS011;3800;48.922;9.444;2023-07-02T01:17:15;5.10;;;4.27;;
7517;SDS011;3800;48.922;9.444;2023-07-02T01:19:47;4.83;;;3.60;;
7517;SDS011;3800;48.922;9.444;2023-07-02T01:22:19;4.63;;;3.90;;
7517;SDS011;3800;48.922;9.444;2023-07-02T01:24:47;4.40;;;4.00;;
7517;SDS011;3800;48.922;9.444;2023-07-02T01:27:15;5.07;;;3.80;;
7517;SDS011;3800;48.922;9.444;2023-07-02T01:29:44;4.27;;;3.87;;
7517;SDS011;3800;48.922;9.444;2023-07-02T01:32:12;5.20;;;3.97;;
7517;SDS011;3800;48.922;9.444;2023-07-02T01:34:40;4.53;;;3.53;;
7517;SDS011;3800;48.922;9.444;2023-07-02T01:37:11;4.20;;;3.43;;
7517;SDS011;3800;48.922;9.444;2023-07-02T01:39:40;4.97;;;3.67;;
7517;SDS011;3800;48.922;9.444;2023-07-02T01:42:09;4.13;;;3.40;;
7517;SDS011;3800;48.922;9.444;2023-07-02T01:44:37;3.83;;;3.53;;
7517;SDS011;3800;48.922;9.444;2023-07-02T01:47:05;5.13;;;3.60;;
7517;SDS011;3800;48.922;9.444;2023-07-02T01:49:34;3.70;;;3.40;;
7517;SDS011;3800;48.922;9.444;2023-07-02T01:52:03;4.23;;;3.57;;
7517;SDS011;3800;48.922;9.444;2023-07-02T01:54:32;4.10;;;3.70;;
7517;SDS011;3800;48.922;9.444;2023-07-02T01:56:59;6.33;;;3.97;;
7517;SDS011;3800;48.922;9.444;2023-07-02T01:59:28;4.60;;;4.10;;
7517;SDS011;3800;48.922;9.444;2023-07-02T02:01:56;4.87;;;3.90;;
7517;SDS011;3800;48.922;9.444;2023-07-02T02:04:24;6.27;;;4.00;;
7517;SDS011;3800;48.922;9.444;2023-07-02T02:06:52;6.27;;;3.57;;
7517;SDS011;3800;48.922;9.444;2023-07-02T02:09:21;6.47;;;3.50;;
7517;SDS011;3800;48.922;9.444;2023-07-02T02:11:50;5.90;;;4.53;;
7517;SDS011;3800;48.922;9.444;2023-07-02T02:14:18;4.23;;;3.67;;
7517;SDS011;3800;48.922;9.444;2023-07-02T02:16:46;5.83;;;3.93;;
7517;SDS011;3800;48.922;9.444;2023-07-02T02:19:16;5.67;;;3.97;;
7517;SDS011;3800;48.922;9.444;2023-07-02T02:21:44;6.37;;;3.87;;
7517;SDS011;3800;48.922;9.444;2023-07-02T02:24:12;7.37;;;3.80;;
7517;SDS011;3800;48.922;9.444;2023-07-02T02:26:40;4.53;;;3.93;;
7517;SDS011;3800;48.922;9.444;2023-07-02T02:29:09;4.93;;;3.70;;
7517;SDS011;3800;48.922;9.444;2023-07-02T02:31:38;6.43;;;3.90;;
7517;SDS011;3800;48.922;9.444;2023-07-02T02:34:06;4.03;;;3.63;;
7517;SDS011;3800;48.922;9.444;2023-07-02T02:36:35;5.10;;;4.07;;
7517;SDS011;3800;48.922;9.444;2023-07-02T02:39:03;4.63;;;4.10;;
7517;SDS011;3800;48.922;9.444;2023-07-02T02:41:32;7.80;;;3.80;;
7517;SDS011;3800;48.922;9.444;2023-07-02T02:44:00;4.37;;;3.90;;
7517;SDS011;3800;48.922;9.444;2023-07-02T02:46:29;6.70;;;4.00;;
7517;SDS011;3800;48.922;9.444;2023-07-02T02:48:57;6.30;;;4.07;;
7517;SDS011;3800;48.922;9.444;2023-07-02T02:51:25;4.33;;;3.70;;
7517;SDS011;3800;48.922;9.444;2023-07-02T02:53:54;6.67;;;4.20;;
7517;SDS011;3800;48.922;9.444;2023-07-02T02:56:23;5.43;;;3.77;;
7517;SDS011;3800;48.922;9.444;2023-07-02T02:58:52;6.93;;;4.00;;
7517;SDS011;3800;48.922;9.444;2023-07-02T03:01:21;4.63;;;4.10;;
7517;SDS011;3800;48.922;9.444;2023-07-02T03:03:49;5.27;;;3.50;;
7517;SDS011;3800;48.922;9.444;2023-07-02T03:06:17;6.00;;;4.23;;
7517;SDS011;3800;48.922;9.444;2023-07-02T03:08:46;8.30;;;3.87;;
7517;SDS011;3800;48.922;9.444;2023-07-02T03:11:15;6.00;;;3.80;;
7517;SDS011;3800;48.922;9.444;2023-07-02T03:13:43;5.03;;;3.87;;
7517;SDS011;3800;48.922;9.444;2023-07-02T03:16:11;7.43;;;3.57;;
7517;SDS011;3800;48.922;9.444;2023-07-02T03:18:40;3.97;;;3.30;;
7517;SDS011;3800;48.922;9.444;2023-07-02T03:21:08;6.90;;;4.03;;
7517;SDS011;3800;48.922;9.444;2023-07-02T03:23:37;5.53;;;3.63;;
7517;SDS011;3800;48.922;9.444;2023-07-02T03:26:06;8.20;;;3.77;;
7517;SDS011;3800;48.922;9.444;2023-07-02T03:28:34;6.83;;;4.23;;
7517;SDS011;3800;48.922;9.444;2023-07-02T03:31:02;6.00;;;4.60;;
7517;SDS011;3800;48.922;9.444;2023-07-02T03:33:31;10.17;;;5.10;;
7517;SDS011;3800;48.922;9.444;2023-07-02T03:35:59;8.80;;;5.23;;
7517;SDS011;3800;48.922;9.444;2023-07-02T03:38:27;7.37;;;5.23;;
7517;SDS011;3800;48.922;9.444;2023-07-02T03:40:55;6.53;;;5.23;;
7517;SDS011;3800;48.922;9.444;2023-07-02T03:43:24;9.03;;;5.60;;
7517;SDS011;3800;48.922;9.444;2023-07-02T03:45:52;6.43;;;5.37;;
7517;SDS011;3800;48.922;9.444;2023-07-02T03:48:20;8.67;;;5.83;;
7517;SDS011;3800;48.922;9.444;2023-07-02T03:50:48;8.93;;;6.13;;
7517;SDS011;3800;48.922;9.444;2023-07-02T03:53:17;7.07;;;5.60;;
7517;SDS011;3800;48.922;9.444;2023-07-02T03:55:46;10.77;;;5.70;;
7517;SDS011;3800;48.922;9.444;2023-07-02T03:58:14;10.80;;;6.03;;
7517;SDS011;3800;48.922;9.444;2023-07-02T04:00:42;6.07;;;5.40;;
7517;SDS011;3800;48.922;9.444;2023-07-02T04:03:11;11.83;;;6.53;;
7517;SDS011;3800;48.922;9.444;2023-07-02T04:05:39;10.83;;;6.23;;
7517;SDS011;3800;48.922;9.444;2023-07-02T04:08:08;7.67;;;5.80;;
7517;SDS011;3800;48.922;9.444;2023-07-02T04:10:37;8.37;;;6.10;;
7517;SDS011;3800;48.922;9.444;2023-07-02T04:13:05;8.37;;;5.93;;
7517;SDS011;3800;48.922;9.444;2023-07-02T04:15:34;11.90;;;6.27;;
7517;SDS011;3800;48.922;9.444;2023-07-02T04:18:02;10.27;;;6.20;;
7517;SDS011;3800;48.922;9.444;2023-07-02T04:20:31;11.20;;;6.80;;
7517;SDS011;3800;48.922;9.444;2023-07-02T04:22:59;9.63;;;6.87;;
7517;SDS011;3800;48.922;9.444;2023-07-02T04:25:27;9.63;;;7.00;;
7517;SDS011;3800;48.922;9.444;2023-07-02T04:27:56;11.70;;;6.73;;
7517;SDS011;3800;48.922;9.444;2023-07-02T04:30:25;9.63;;;6.60;;
7517;SDS011;3800;48.922;9.444;2023-07-02T04:32:53;12.33;;;6.90;;
7517;SDS011;3800;48.922;9.444;2023-07-02T04:35:21;11.80;;;7.07;;
7517;SDS011;3800;48.922;9.444;2023-07-02T04:37:49;13.43;;;7.03;;
7517;SDS011;3800;48.922;9.444;2023-07-02T04:40:18;12.57;;;6.90;;
7517;SDS011;3800;48.922;9.444;2023-07-02T04:42:46;8.57;;;6.43;;
7517;SDS011;3800;48.922;9.444;2023-07-02T04:45:14;11.20;;;6.90;;
7517;SDS011;3800;48.922;9.444;2023-07-02T04:47:43;9.33;;;6.33;;
7517;SDS011;3800;48.922;9.444;2023-07-02T04:50:11;8.17;;;6.00;;
7517;SDS011;3800;48.922;9.444;2023-07-02T04:52:40;10.47;;;6.67;;
7517;SDS011;3800;48.922;9.444;2023-07-02T04:55:08;12.23;;;6.23;;
7517;SDS011;3800;48.922;9.444;2023-07-02T04:57:36;9.60;;;6.30;;
7517;SDS011;3800;48.922;9.444;2023-07-02T05:00:05;8.03;;;6.13;;
7517;SDS011;3800;48.922;9.444;2023-07-02T05:02:34;11.33;;;6.70;;
7517;SDS011;3800;48.922;9.444;2023-07-02T05:05:02;11.77;;;6.90;;
7517;SDS011;3800;48.922;9.444;2023-07-02T05:07:31;9.73;;;7.17;;
7517;SDS011;3800;48.922;9.444;2023-07-02T05:09:59;11.00;;;7.37;;
7517;SDS011;3800;48.922;9.444;2023-07-02T05:12:27;9.17;;;6.30;;
7517;SDS011;3800;48.922;9.444;2023-07-02T05:14:56;12.67;;;7.90;;
7517;SDS011;3800;48.922;9.444;2023-07-02T05:17:25;11.87;;;6.93;;
7517;SDS011;3800;48.922;9.444;2023-07-02T05:19:53;9.83;;;6.70;;
7517;SDS011;3800;48.922;9.444;2023-07-02T05:22:21;11.80;;;6.20;;
7517;SDS011;3800;48.922;9.444;2023-07-02T05:24:50;10.20;;;6.80;;
7517;SDS011;3800;48.922;9.444;2023-07-02T05:27:18;11.23;;;6.97;;
7517;SDS011;3800;48.922;9.444;2023-07-02T05:29:46;8.90;;;6.00;;
7517;SDS011;3800;48.922;9.444;2023-07-02T05:32:15;11.10;;;5.50;;
7517;SDS011;3800;48.922;9.444;2023-07-02T05:34:43;7.43;;;6.07;;
7517;SDS011;3800;48.922;9.444;2023-07-02T05:37:12;7.70;;;6.27;;
7517;SDS011;3800;48.922;9.444;2023-07-02T05:39:41;11.10;;;5.60;;
7517;SDS011;3800;48.922;9.444;2023-07-02T05:42:09;9.60;;;5.40;;
7517;SDS011;3800;48.922;9.444;2023-07-02T05:44:37;8.07;;;5.10;;
7517;SDS011;3800;48.922;9.444;2023-07-02T05:47:05;9.50;;;5.30;;
7517;SDS011;3800;48.922;9.444;2023-07-02T05:49:35;9.30;;;5.00;;
7517;SDS011;3800;48.922;9.444;2023-07-02T05:52:03;10.13;;;4.93;;
7517;SDS011;3800;48.922;9.444;2023-07-02T05:54:31;8.97;;;5.40;;
7517;SDS011;3800;48.922;9.444;2023-07-02T05:56:59;9.50;;;5.10;;
7517;SDS011;3800;48.922;9.444;2023-07-02T05:59:28;6.47;;;4.90;;
7517;SDS011;3800;48.922;9.444;2023-07-02T06:01:57;5.33;;;4.40;;
7517;SDS011;3800;48.922;9.444;2023-07-02T06:04:25;8.03;;;5.00;;
7517;SDS011;3800;48.922;9.444;2023-07-02T06:06:53;7.87;;;4.90;;
7517;SDS011;3800;48.922;9.444;2023-07-02T06:09:22;9.80;;;4.73;;
7517;SDS011;3800;48.922;9.444;2023-07-02T06:11:51;6.97;;;5.63;;
7517;SDS011;3800;48.922;9.444;2023-07-02T06:14:19;6.97;;;5.70;;
7517;SDS011;3800;48.922;9.444;2023-07-02T06:16:48;9.27;;;6.20;;
7517;SDS011;3800;48.922;9.444;2023-07-02T06:19:17;9.30;;;6.53;;
7517;SDS011;3800;48.922;9.444;2023-07-02T06:21:46;11.33;;;6.70;;
7517;SDS011;3800;48.922;9.444;2023-07-02T06:24:14;10.50;;;6.30;;
7517;SDS011;3800;48.922;9.444;2023-07-02T06:26:43;10.97;;;6.87;;
7517;SDS011;3800;48.922;9.444;2023-07-02T06:29:11;11.60;;;6.90;;
7517;SDS011;3800;48.922;9.444;2023-07-02T06:31:39;12.53;;;7.20;;
7517;SDS011;3800;48.922;9.444;2023-07-02T06:34:08;12.23;;;6.83;;
7517;SDS011;3800;48.922;9.444;2023-07-02T06:36:37;13.30;;;7.00;;
7517;SDS011;3800;48.922;9.444;2023-07-02T06:39:05;9.07;;;6.90;;
7517;SDS011;3800;48.922;9.444;2023-07-02T06:41:33;11.40;;;7.33;;
7517;SDS011;3800;48.922;9.444;2023-07-02T06:44:02;12.10;;;7.10;;
7517;SDS011;3800;48.922;9.444;2023-07-02T06:46:30;11.50;;;7.37;;
7517;SDS011;3800;48.922;9.444;2023-07-02T06:48:58;11.90;;;7.30;;
7517;SDS011;3800;48.922;9.444;2023-07-02T06:51:26;13.47;;;7.50;;
7517;SDS011;3800;48.922;9.444;2023-07-02T06:53:55;10.87;;;6.90;;
7517;SDS011;3800;48.922;9.444;2023-07-02T06:56:24;12.53;;;6.80;;
7517;SDS011;3800;48.922;9.444;2023-07-02T06:58:52;10.60;;;6.67;;
7517;SDS011;3800;48.922;9.444;2023-07-02T07:01:21;10.33;;;7.30;;
7517;SDS011;3800;48.922;9.444;2023-07-02T07:03:49;11.60;;;7.00;;
7517;SDS011;3800;48.922;9.444;2023-07-02T07:06:19;13.53;;;6.83;;
7517;SDS011;3800;48.922;9.444;2023-07-02T07:08:47;10.83;;;7.27;;
7517;SDS011;3800;48.922;9.444;2023-07-02T07:11:15;10.53;;;7.00;;
7517;SDS011;3800;48.922;9.444;2023-07-02T07:13:43;11.37;;;7.03;;
7517;SDS011;3800;48.922;9.444;2023-07-02T07:16:12;10.77;;;7.43;;
7517;SDS011;3800;48.922;9.444;2023-07-02T07:18:40;13.83;;;7.07;;
7517;SDS011;3800;48.922;9.444;2023-07-02T07:21:08;11.27;;;7.40;;
7517;SDS011;3800;48.922;9.444;2023-07-02T07:23:37;12.03;;;6.80;;
7517;SDS011;3800;48.922;9.444;2023-07-02T07:26:05;10.50;;;7.27;;
7517;SDS011;3800;48.922;9.444;2023-07-02T07:28:33;9.57;;;6.83;;
7517;SDS011;3800;48.922;9.444;2023-07-02T07:31:01;9.90;;;7.03;;
7517;SDS011;3800;48.922;9.444;2023-07-02T07:33:30;12.80;;;7.33;;
7517;SDS011;3800;48.922;9.444;2023-07-02T07:35:58;15.63;;;7.47;;
7517;SDS011;3800;48.922;9.444;2023-07-02T07:38:26;13.80;;;6.97;;
7517;SDS011;3800;48.922;9.444;2023-07-02T07:40:55;11.67;;;6.83;;
7517;SDS011;3800;48.922;9.444;2023-07-02T07:43:23;10.50;;;7.50;;
7517;SDS011;3800;48.922;9.444;2023-07-02T07:45:52;11.47;;;7.37;;
7517;SDS011;3800;48.922;9.444;2023-07-02T07:48:24;10.63;;;7.63;;
7517;SDS011;3800;48.922;9.444;2023-07-02T07:50:52;10.43;;;7.23;;
7517;SDS011;3800;48.922;9.444;2023-07-02T07:53:21;11.90;;;7.17;;
7517;SDS011;3800;48.922;9.444;2023-07-02T07:55:50;11.27;;;7.43;;
7517;SDS011;3800;48.922;9.444;2023-07-02T07:58:18;11.27;;;7.80;;
7517;SDS011;3800;48.922;9.444;2023-07-02T08:00:46;13.70;;;8.13;;
7517;SDS011;3800;48.922;9.444;2023-07-02T08:03:15;14.53;;;8.50;;
7517;SDS011;3800;48.922;9.444;2023-07-02T08:05:44;12.53;;;7.87;;
7517;SDS011;3800;48.922;9.444;2023-07-02T08:08:12;12.17;;;8.80;;
7517;SDS011;3800;48.922;9.444;2023-07-02T08:10:40;13.93;;;8.90;;
7517;SDS011;3800;48.922;9.444;2023-07-02T08:13:08;14.43;;;9.27;;
7517;SDS011;3800;48.922;9.444;2023-07-02T08:15:37;15.40;;;9.83;;
7517;SDS011;3800;48.922;9.444;2023-07-02T08:18:06;12.73;;;8.30;;
7517;SDS011;3800;48.922;9.444;2023-07-02T08:20:34;13.13;;;9.10;;
7517;SDS011;3800;48.922;9.444;2023-07-02T08:23:03;14.27;;;10.00;;
7517;SDS011;3800;48.922;9.444;2023-07-02T08:25:31;15.20;;;9.63;;
7517;SDS011;3800;48.922;9.444;2023-07-02T08:28:00;16.37;;;10.40;;
7517;SDS011;3800;48.922;9.444;2023-07-02T08:30:28;15.40;;;10.13;;
7517;SDS011;3800;48.922;9.444;2023-07-02T08:32:56;15.07;;;10.67;;
7517;SDS011;3800;48.922;9.444;2023-07-02T08:35:25;15.27;;;10.80;;
7517;SDS011;3800;48.922;9.444;2023-07-02T08:37:53;17.20;;;11.00;;
7517;SDS011;3800;48.922;9.444;2023-07-02T08:40:22;15.60;;;11.17;;
7517;SDS011;3800;48.922;9.444;2023-07-02T08:42:50;20.77;;;12.63;;
7517;SDS011;3800;48.922;9.444;2023-07-02T08:45:18;16.93;;;11.67;;
7517;SDS011;3800;48.922;9.444;2023-07-02T08:47:47;16.60;;;11.93;;
7517;SDS011;3800;48.922;9.444;2023-07-02T08:50:16;18.70;;;11.93;;
7517;SDS011;3800;48.922;9.444;2023-07-02T08:52:45;18.17;;;11.70;;
7517;SDS011;3800;48.922;9.444;2023-07-02T08:55:12;16.80;;;11.37;;
7517;SDS011;3800;48.922;9.444;2023-07-02T08:57:42;16.53;;;11.33;;
7517;SDS011;3800;48.922;9.444;2023-07-02T09:00:15;18.80;;;11.50;;
7517;SDS011;3800;48.922;9.444;2023-07-02T09:02:43;17.50;;;11.60;;
7517;SDS011;3800;48.922;9.444;2023-07-02T09:05:12;16.80;;;11.07;;
7517;SDS011;3800;48.922;9.444;2023-07-02T09:07:45;15.97;;;11.17;;
7517;SDS011;3800;48.922;9.444;2023-07-02T09:10:25;16.57;;;11.40;;
7517;SDS011;3800;48.922;9.444;2023-07-02T09:13:01;19.20;;;11.80;;
7517;SDS011;3800;48.922;9.444;2023-07-02T09:15:21;17.00;;;11.20;;
7517;SDS011;3800;48.922;9.444;2023-07-02T09:17:49;18.20;;;11.37;;
7517;SDS011;3800;48.922;9.444;2023-07-02T09:20:17;18.80;;;12.23;;
7517;SDS011;3800;48.922;9.444;2023-07-02T09:22:53;17.63;;;11.87;;
7517;SDS011;3800;48.922;9.444;2023-07-02T09:25:14;17.27;;;11.00;;
7517;SDS011;3800;48.922;9.444;2023-07-02T09:27:42;16.97;;;11.53;;
7517;SDS011;3800;48.922;9.444;2023-07-02T09:30:12;20.37;;;11.80;;
7517;SDS011;3800;48.922;9.444;2023-07-02T09:32:42;18.17;;;11.20;;
7517;SDS011;3800;48.922;9.444;2023-07-02T09:35:09;14.97;;;10.57;;
7517;SDS011;3800;48.922;9.444;2023-07-02T09:37:38;15.50;;;10.90;;
7517;SDS011;3800;48.922;9.444;2023-07-02T09:40:06;14.80;;;11.00;;
7517;SDS011;3800;48.922;9.444;2023-07-02T09:42:35;19.33;;;11.70;;
7517;SDS011;3800;48.922;9.444;2023-07-02T09:45:03;18.80;;;11.97;;
7517;SDS011;3800;48.922;9.444;2023-07-02T09:47:32;18.13;;;11.63;;
7517;SDS011;3800;48.922;9.444;2023-07-02T09:50:02;17.30;;;11.00;;
7517;SDS011;3800;48.922;9.444;2023-07-02T09:52:31;17.07;;;11.67;;
7517;SDS011;3800;48.922;9.444;2023-07-02T09:54:59;19.50;;;12.80;;
7517;SDS011;3800;48.922;9.444;2023-07-02T09:57:27;19.37;;;12.47;;
7517;SDS011;3800;48.922;9.444;2023-07-02T09:59:55;17.60;;;12.27;;
7517;SDS011;3800;48.922;9.444;2023-07-02T10:02:24;23.00;;;13.07;;
7517;SDS011;3800;48.922;9.444;2023-07-02T10:04:53;19.00;;;12.47;;
7517;SDS011;3800;48.922;9.444;2023-07-02T10:07:26;17.70;;;12.60;;
7517;SDS011;3800;48.922;9.444;2023-07-02T10:09:53;18.13;;;12.33;;
7517;SDS011;3800;48.922;9.444;2023-07-02T10:12:23;16.73;;;11.23;;
7517;SDS011;3800;48.922;9.444;2023-07-02T10:14:51;17.07;;;12.90;;
7517;SDS011;3800;48.922;9.444;2023-07-02T10:17:24;18.97;;;12.17;;
7517;SDS011;3800;48.922;9.444;2023-07-02T10:19:54;19.27;;;13.43;;
7517;SDS011;3800;48.922;9.444;2023-07-02T10:22:22;16.70;;;12.50;;
7517;SDS011;3800;48.922;9.444;2023-07-02T10:24:52;19.70;;;12.73;;
7517;SDS011;3800;48.922;9.444;2023-07-02T10:27:32;17.20;;;12.40;;
7517;SDS011;3800;48.922;9.444;2023-07-02T10:29:50;19.33;;;13.33;;
7517;SDS011;3800;48.922;9.444;2023-07-02T10:34:53;17.53;;;12.27;;
7517;SDS011;3800;48.922;9.444;2023-07-02T10:37:22;16.83;;;12.47;;
7517;SDS011;3800;48.922;9.444;2023-07-02T10:39:50;18.37;;;12.73;;
7517;SDS011;3800;48.922;9.444;2023-07-02T10:42:18;20.40;;;13.03;;
7517;SDS011;3800;48.922;9.444;2023-07-02T10:44:48;18.07;;;12.23;;
7517;SDS011;3800;48.922;9.444;2023-07-02T10:47:19;20.07;;;13.33;;
7517;SDS011;3800;48.922;9.444;2023-07-02T10:49:47;18.17;;;13.10;;
7517;SDS011;3800;48.922;9.444;2023-07-02T10:52:15;20.70;;;13.30;;
7517;SDS011;3800;48.922;9.444;2023-07-02T10:54:44;18.00;;;12.80;;
7517;SDS011;3800;48.922;9.444;2023-07-02T10:57:13;20.37;;;13.10;;
7517;SDS011;3800;48.922;9.444;2023-07-02T10:59:40;18.43;;;12.63;;
7517;SDS011;3800;48.922;9.444;2023-07-02T11:02:09;18.40;;;12.50;;
7517;SDS011;3800;48.922;9.444;2023-07-02T11:04:37;19.30;;;12.43;;
7517;SDS011;3800;48.922;9.444;2023-07-02T11:07:05;17.30;;;12.67;;
7517;SDS011;3800;48.922;9.444;2023-07-02T11:09:34;16.47;;;12.27;;
7517;SDS011;3800;48.922;9.444;2023-07-02T11:12:02;15.50;;;11.63;;
7517;SDS011;3800;48.922;9.444;2023-07-02T11:14:31;19.63;;;14.50;;
7517;SDS011;3800;48.922;9.444;2023-07-02T11:17:03;15.83;;;11.60;;
7517;SDS011;3800;48.922;9.444;2023-07-02T11:19:31;18.67;;;12.67;;
7517;SDS011;3800;48.922;9.444;2023-07-02T11:22:00;15.97;;;11.60;;
7517;SDS011;3800;48.922;9.444;2023-07-02T11:24:31;16.60;;;12.57;;
7517;SDS011;3800;48.922;9.444;2023-07-02T11:27:03;19.53;;;12.17;;
7517;SDS011;3800;48.922;9.444;2023-07-02T11:29:31;18.97;;;13.10;;
7517;SDS011;3800;48.922;9.444;2023-07-02T11:32:06;19.93;;;12.40;;
7517;SDS011;3800;48.922;9.444;2023-07-02T11:34:34;21.53;;;13.60;;
7517;SDS011;3800;48.922;9.444;2023-07-02T11:37:02;17.50;;;12.23;;
7517;SDS011;3800;48.922;9.444;2023-07-02T11:39:31;18.00;;;12.87;;
7517;SDS011;3800;48.922;9.444;2023-07-02T11:42:01;18.53;;;12.17;;
7517;SDS011;3800;48.922;9.444;2023-07-02T11:44:30;17.20;;;13.17;;
7517;SDS011;3800;48.922;9.444;2023-07-02T11:46:58;17.73;;;12.10;;
7517;SDS011;3800;48.922;9.444;2023-07-02T11:49:27;15.77;;;11.50;;
7517;SDS011;3800;48.922;9.444;2023-07-02T11:51:55;16.53;;;12.13;;
7517;SDS011;3800;48.922;9.444;2023-07-02T11:54:24;19.63;;;11.90;;
7517;SDS011;3800;48.922;9.444;2023-07-02T11:56:52;19.17;;;12.77;;
7517;SDS011;3800;48.922;9.444;2023-07-02T11:59:20;17.63;;;12.70;;
7517;SDS011;3800;48.922;9.444;2023-07-02T12:01:49;16.27;;;13.20;;
7517;SDS011;3800;48.922;9.444;2023-07-02T12:04:18;16.43;;;12.03;;
7517;SDS011;3800;48.922;9.444;2023-07-02T12:06:46;17.00;;;13.03;;
7517;SDS011;3800;48.922;9.444;2023-07-02T12:09:14;15.43;;;11.73;;
7517;SDS011;3800;48.922;9.444;2023-07-02T12:11:42;17.53;;;11.97;;
7517;SDS011;3800;48.922;9.444;2023-07-02T12:14:11;17.50;;;12.00;;
7517;SDS011;3800;48.922;9.444;2023-07-02T12:16:40;17.17;;;11.70;;
7517;SDS011;3800;48.922;9.444;2023-07-02T12:19:08;17.43;;;11.87;;
7517;SDS011;3800;48.922;9.444;2023-07-02T12:21:36;16.33;;;11.47;;
7517;SDS011;3800;48.922;9.444;2023-07-02T12:24:05;15.67;;;11.83;;
7517;SDS011;3800;48.922;9.444;2023-07-02T12:26:33;16.37;;;12.30;;
7517;SDS011;3800;48.922;9.444;2023-07-02T12:29:01;18.63;;;12.90;;
7517;SDS011;3800;48.922;9.444;2023-07-02T12:31:30;17.43;;;12.23;;
7517;SDS011;3800;48.922;9.444;2023-07-02T12:33:58;17.87;;;12.13;;
7517;SDS011;3800;48.922;9.444;2023-07-02T12:36:26;17.10;;;11.47;;
7517;SDS011;3800;48.922;9.444;2023-07-02T12:38:55;14.23;;;11.43;;
7517;SDS011;3800;48.922;9.444;2023-07-02T12:41:23;16.87;;;11.70;;
7517;SDS011;3800;48.922;9.444;2023-07-02T12:43:51;13.93;;;11.50;;
7517;SDS011;3800;48.922;9.444;2023-07-02T12:46:20;18.47;;;12.30;;
7517;SDS011;3800;48.922;9.444;2023-07-02T12:48:48;17.73;;;12.43;;
7517;SDS011;3800;48.922;9.444;2023-07-02T12:51:17;18.50;;;11.83;;
7517;SDS011;3800;48.922;9.444;2023-07-02T12:53:45;19.17;;;11.57;;
7517;SDS011;3800;48.922;9.444;2023-07-02T12:56:14;15.80;;;11.13;;
7517;SDS011;3800;48.922;9.444;2023-07-02T12:58:42;15.47;;;11.53;;
7517;SDS011;3800;48.922;9.444;2023-07-02T13:01:11;15.57;;;11.13;;
7517;SDS011;3800;48.922;9.444;2023-07-02T13:03:44;15.40;;;11.23;;
7517;SDS011;3800;48.922;9.444;2023-07-02T13:06:07;19.93;;;12.60;;
7517;SDS011;3800;48.922;9.444;2023-07-02T13:08:36;18.33;;;12.03;;
7517;SDS011;3800;48.922;9.444;2023-07-02T13:11:05;15.90;;;11.87;;
7517;SDS011;3800;48.922;9.444;2023-07-02T13:13:34;15.40;;;11.77;;
7517;SDS011;3800;48.922;9.444;2023-07-02T13:16:01;17.27;;;12.27;;
7517;SDS011;3800;48.922;9.444;2023-07-02T13:18:29;15.60;;;11.60;;
7517;SDS011;3800;48.922;9.444;2023-07-02T13:20:58;16.13;;;12.07;;
7517;SDS011;3800;48.922;9.444;2023-07-02T13:23:26;19.27;;;12.17;;
7517;SDS011;3800;48.922;9.444;2023-07-02T13:25:55;19.77;;;12.77;;
7517;SDS011;3800;48.922;9.444;2023-07-02T13:28:23;16.80;;;11.77;;
7517;SDS011;3800;48.922;9.444;2023-07-02T13:30:51;17.43;;;12.50;;
7517;SDS011;3800;48.922;9.444;2023-07-02T13:33:20;17.10;;;12.13;;
7517;SDS011;3800;48.922;9.444;2023-07-02T13:35:48;17.70;;;12.60;;
7517;SDS011;3800;48.922;9.444;2023-07-02T13:38:17;15.80;;;12.47;;
7517;SDS011;3800;48.922;9.444;2023-07-02T13:40:45;19.33;;;11.90;;
7517;SDS011;3800;48.922;9.444;2023-07-02T13:43:14;17.77;;;11.50;;
7517;SDS011;3800;48.922;9.444;2023-07-02T13:45:42;16.97;;;12.33;;
7517;SDS011;3800;48.922;9.444;2023-07-02T13:48:10;19.03;;;13.10;;
7517;SDS011;3800;48.922;9.444;2023-07-02T13:50:38;17.60;;;12.03;;
7517;SDS011;3800;48.922;9.444;2023-07-02T13:53:07;16.37;;;11.73;;
7517;SDS011;3800;48.922;9.444;2023-07-02T13:55:35;19.27;;;12.73;;
7517;SDS011;3800;48.922;9.444;2023-07-02T13:58:03;16.80;;;11.73;;
7517;SDS011;3800;48.922;9.444;2023-07-02T14:00:32;19.87;;;12.37;;
7517;SDS011;3800;48.922;9.444;2023-07-02T14:03:00;19.73;;;12.17;;
7517;SDS011;3800;48.922;9.444;2023-07-02T14:05:28;17.97;;;12.37;;
7517;SDS011;3800;48.922;9.444;2023-07-02T14:07:57;16.13;;;11.70;;
7517;SDS011;3800;48.922;9.444;2023-07-02T14:10:25;18.80;;;12.77;;
7517;SDS011;3800;48.922;9.444;2023-07-02T14:12:53;18.23;;;11.83;;
7517;SDS011;3800;48.922;9.444;2023-07-02T14:15:23;14.83;;;11.20;;
7517;SDS011;3800;48.922;9.444;2023-07-02T14:17:50;17.70;;;11.73;;
7517;SDS011;3800;48.922;9.444;2023-07-02T14:20:19;15.27;;;11.23;;
7517;SDS011;3800;48.922;9.444;2023-07-02T14:22:47;14.83;;;11.07;;
7517;SDS011;3800;48.922;9.444;2023-07-02T14:25:15;15.50;;;10.93;;
7517;SDS011;3800;48.922;9.444;2023-07-02T14:27:44;15.13;;;10.90;;
7517;SDS011;3800;48.922;9.444;2023-07-02T14:30:12;15.53;;;11.63;;
7517;SDS011;3800;48.922;9.444;2023-07-02T14:32:41;15.60;;;11.57;;
7517;SDS011;3800;48.922;9.444;2023-07-02T14:35:09;15.73;;;11.20;;
7517;SDS011;3800;48.922;9.444;2023-07-02T14:37:38;15.37;;;11.03;;
7517;SDS011;3800;48.922;9.444;2023-07-02T14:40:07;13.30;;;10.53;;
7517;SDS011;3800;48.922;9.444;2023-07-02T14:42:37;14.13;;;11.53;;
7517;SDS011;3800;48.922;9.444;2023-07-02T14:45:05;16.27;;;11.67;;
7517;SDS011;3800;48.922;9.444;2023-07-02T14:47:34;15.40;;;11.47;;
7517;SDS011;3800;48.922;9.444;2023-07-02T14:50:02;15.17;;;10.97;;
7517;SDS011;3800;48.922;9.444;2023-07-02T14:52:31;15.97;;;11.40;;
7517;SDS011;3800;48.922;9.444;2023-07-02T14:55:00;15.43;;;10.43;;
7517;SDS011;3800;48.922;9.444;2023-07-02T14:57:28;15.43;;;11.43;;
7517;SDS011;3800;48.922;9.444;2023-07-02T14:59:57;15.10;;;11.23;;
7517;SDS011;3800;48.922;9.444;2023-07-02T15:02:25;14.90;;;11.13;;
7517;SDS011;3800;48.922;9.444;2023-07-02T15:04:53;15.40;;;11.13;;
7517;SDS011;3800;48.922;9.444;2023-07-02T15:07:21;15.30;;;11.40;;
7517;SDS011;3800;48.922;9.444;2023-07-02T15:09:50;14.43;;;10.47;;